createdAt,value
2022-09-15T00:00:38.451Z,12.94
2022-09-15T00:02:40.008Z,12.93
2022-09-15T00:04:42.644Z,12.94
2022-09-15T00:06:44.156Z,12.93
2022-09-15T00:08:45.835Z,12.91
2022-09-15T00:10:49.232Z,12.90
2022-09-15T00:12:50.778Z,12.87
2022-09-15T00:14:52.525Z,12.80
2022-09-15T00:16:54.082Z,12.73
2022-09-15T00:18:55.621Z,12.65
2022-09-15T00:20:57.442Z,12.59
2022-09-15T00:22:58.962Z,12.55
2022-09-15T00:25:00.541Z,12.51
2022-09-15T00:27:02.140Z,12.47
2022-09-15T00:29:04.063Z,12.42
2022-09-15T00:31:13.617Z,12.39
2022-09-15T00:33:15.376Z,12.37
2022-09-15T00:35:16.958Z,12.35
2022-09-15T00:37:18.682Z,12.35
2022-09-15T00:39:20.665Z,12.37
2022-09-15T00:41:22.960Z,12.37
2022-09-15T00:43:42.713Z,12.40
2022-09-15T00:45:45.116Z,12.38
2022-09-15T00:47:46.629Z,12.37
2022-09-15T00:49:49.780Z,12.39
2022-09-15T00:51:52.786Z,12.41
2022-09-15T00:53:57.497Z,12.45
2022-09-15T00:55:59.279Z,12.48
2022-09-15T00:58:03.006Z,12.53
2022-09-15T01:00:06.685Z,12.60
2022-09-15T01:02:29.582Z,12.64
2022-09-15T01:04:31.213Z,12.71
2022-09-15T01:06:36.644Z,12.74
2022-09-15T01:08:58.475Z,12.74
2022-09-15T01:11:00.513Z,12.74
2022-09-15T01:13:03.475Z,12.73
2022-09-15T01:15:05.465Z,12.69
2022-09-15T01:17:11.488Z,12.65
2022-09-15T01:19:37.410Z,12.62
2022-09-15T01:21:52.891Z,12.60
2022-09-15T01:24:01.139Z,12.57
2022-09-15T01:26:22.472Z,12.56
2022-09-15T01:28:43.838Z,12.55
2022-09-15T01:30:47.145Z,12.52
2022-09-15T01:33:05.557Z,12.52
2022-09-15T01:35:11.426Z,12.52
2022-09-15T01:37:13.647Z,12.51
2022-09-15T01:39:22.273Z,12.52
2022-09-15T01:41:31.630Z,12.54
2022-09-15T01:43:33.960Z,12.56
2022-09-15T01:45:35.522Z,12.59
2022-09-15T01:47:37.107Z,12.61
2022-09-15T01:49:41.768Z,12.61
2022-09-15T01:51:44.996Z,12.66
2022-09-15T01:53:46.590Z,12.66
2022-09-15T01:55:55.046Z,12.65
2022-09-15T01:57:57.318Z,12.65
2022-09-15T01:59:59.027Z,12.63
2022-09-15T02:02:08.116Z,12.61
2022-09-15T02:04:23.739Z,12.59
2022-09-15T02:06:36.958Z,12.58
2022-09-15T02:08:40.815Z,12.57
2022-09-15T02:10:51.640Z,12.56
2022-09-15T02:13:03.213Z,12.55
2022-09-15T02:15:08.692Z,12.54
2022-09-15T02:17:12.193Z,12.51
2022-09-15T02:19:22.355Z,12.51
2022-09-15T02:21:35.137Z,12.54
2022-09-15T02:23:43.692Z,12.56
2022-09-15T02:25:47.338Z,12.60
2022-09-15T02:27:52.949Z,12.60
2022-09-15T02:29:55.789Z,12.62
2022-09-15T02:31:57.569Z,12.63
2022-09-15T02:34:00.591Z,12.64
2022-09-15T02:36:02.232Z,12.64
2022-09-15T02:38:05.351Z,12.64
2022-09-15T02:40:07.242Z,12.63
2022-09-15T02:42:08.849Z,12.63
2022-09-15T02:44:10.410Z,12.61
2022-09-15T02:46:12.451Z,12.60
2022-09-15T02:48:15.425Z,12.54
2022-09-15T02:50:17.557Z,12.51
2022-09-15T02:52:22.278Z,12.47
2022-09-15T02:54:23.936Z,12.43
2022-09-15T02:56:25.588Z,12.42
2022-09-15T02:58:27.136Z,12.41
2022-09-15T03:00:28.655Z,12.39
2022-09-15T03:02:30.502Z,12.38
2022-09-15T03:04:32.111Z,12.37
2022-09-15T03:06:36.569Z,12.36
2022-09-15T03:08:47.671Z,12.37
2022-09-15T03:10:49.201Z,12.39
2022-09-15T03:12:52.584Z,12.41
2022-09-15T03:14:54.113Z,12.44
2022-09-15T03:16:55.644Z,12.47
2022-09-15T03:18:59.311Z,12.49
2022-09-15T03:21:02.196Z,12.48
2022-09-15T03:23:03.798Z,12.49
2022-09-15T03:25:06.606Z,12.49
2022-09-15T03:27:08.188Z,12.48
2022-09-15T03:29:09.765Z,12.46
2022-09-15T03:31:13.705Z,12.45
2022-09-15T03:33:15.293Z,12.44
2022-09-15T03:35:17.071Z,12.44
2022-09-15T03:37:18.590Z,12.43
2022-09-15T03:39:20.177Z,12.43
2022-09-15T03:41:21.689Z,12.42
2022-09-15T03:43:23.478Z,12.42
2022-09-15T03:45:25.132Z,12.42
2022-09-15T03:47:26.707Z,12.44
2022-09-15T03:49:28.184Z,12.45
2022-09-15T03:51:29.691Z,12.47
2022-09-15T03:53:39.195Z,12.50
2022-09-15T03:55:40.710Z,12.52
2022-09-15T03:57:42.448Z,12.53
2022-09-15T03:59:44.186Z,12.54
2022-09-15T04:01:46.139Z,12.54
2022-09-15T04:03:51.124Z,12.57
2022-09-15T04:05:53.534Z,12.58
2022-09-15T04:07:55.076Z,12.56
2022-09-15T04:09:57.316Z,12.54
2022-09-15T04:11:58.861Z,12.52
2022-09-15T04:14:00.378Z,12.48
2022-09-15T04:16:02.992Z,12.44
2022-09-15T04:18:05.095Z,12.41
2022-09-15T04:20:07.515Z,12.38
2022-09-15T04:22:12.327Z,12.35
2022-09-15T04:24:15.890Z,12.32
2022-09-15T04:26:19.975Z,12.30
2022-09-15T04:28:22.953Z,12.32
2022-09-15T04:30:24.523Z,12.33
2022-09-15T04:32:26.224Z,12.35
2022-09-15T04:34:27.856Z,12.37
2022-09-15T04:36:29.649Z,12.37
2022-09-15T04:38:31.735Z,12.36
2022-09-15T04:40:34.030Z,12.35
2022-09-15T04:42:36.279Z,12.36
2022-09-15T04:44:38.054Z,12.35
2022-09-15T04:46:39.697Z,12.31
2022-09-15T04:48:42.990Z,12.28
2022-09-15T04:50:52.827Z,12.26
2022-09-15T04:52:54.386Z,12.23
2022-09-15T04:54:55.974Z,12.21
2022-09-15T04:56:57.816Z,12.18
2022-09-15T04:59:03.583Z,12.15
2022-09-15T05:01:13.471Z,12.13
2022-09-15T05:03:16.407Z,12.10
2022-09-15T05:05:17.948Z,12.07
2022-09-15T05:07:19.704Z,12.03
2022-09-15T05:09:21.243Z,12.00
2022-09-15T05:11:22.903Z,11.98
2022-09-15T05:13:26.541Z,11.95
2022-09-15T05:15:30.238Z,11.91
2022-09-15T05:17:32.603Z,11.87
2022-09-15T05:19:34.877Z,11.84
2022-09-15T05:21:37.617Z,11.82
2022-09-15T05:23:39.323Z,11.84
2022-09-15T05:25:41.159Z,11.88
2022-09-15T05:27:42.733Z,11.88
2022-09-15T05:29:44.268Z,11.91
2022-09-15T05:31:45.852Z,11.94
2022-09-15T05:33:48.059Z,11.98
2022-09-15T05:35:57.885Z,12.00
2022-09-15T05:37:59.431Z,12.03
2022-09-15T05:40:03.231Z,12.04
2022-09-15T05:42:08.817Z,12.09
2022-09-15T05:44:10.410Z,12.16
2022-09-15T05:46:12.243Z,12.17
2022-09-15T05:48:13.878Z,12.12
2022-09-15T05:50:16.283Z,12.09
2022-09-15T05:52:18.794Z,12.07
2022-09-15T05:54:20.290Z,12.07
2022-09-15T05:56:21.885Z,12.08
2022-09-15T05:58:23.547Z,12.07
2022-09-15T06:00:25.068Z,12.08
2022-09-15T06:02:26.666Z,12.10
2022-09-15T06:04:28.311Z,12.12
2022-09-15T06:06:30.779Z,12.14
2022-09-15T06:08:44.277Z,12.17
2022-09-15T06:10:47.483Z,12.20
2022-09-15T06:12:50.740Z,12.22
2022-09-15T06:14:53.183Z,12.24
2022-09-15T06:16:54.694Z,12.27
2022-09-15T06:18:56.199Z,12.33
2022-09-15T06:21:02.732Z,12.41
2022-09-15T06:23:04.432Z,12.48
2022-09-15T06:25:06.449Z,12.60
2022-09-15T06:27:07.954Z,12.70
2022-09-15T06:29:11.397Z,12.76
2022-09-15T06:31:13.173Z,12.80
2022-09-15T06:33:15.415Z,12.85
2022-09-15T06:35:17.446Z,12.90
2022-09-15T06:37:19.114Z,12.90
2022-09-15T06:39:20.634Z,12.93
2022-09-15T06:41:22.255Z,12.96
2022-09-15T06:43:23.782Z,12.97
2022-09-15T06:45:25.474Z,12.96
2022-09-15T06:47:33.954Z,12.95
2022-09-15T06:49:35.583Z,12.95
2022-09-15T06:51:37.122Z,12.95
2022-09-15T06:53:38.738Z,12.94
2022-09-15T06:55:40.285Z,12.95
2022-09-15T06:57:41.822Z,12.99
2022-09-15T06:59:43.783Z,13.06
2022-09-15T07:01:47.584Z,13.13
2022-09-15T07:03:49.426Z,13.19
2022-09-15T07:05:51.155Z,13.23
2022-09-15T07:07:53.098Z,13.30
2022-09-15T07:09:54.714Z,13.35
2022-09-15T07:11:56.298Z,13.38
2022-09-15T07:13:57.859Z,13.37
2022-09-15T07:16:00.359Z,13.37
2022-09-15T07:18:01.968Z,13.38
2022-09-15T07:20:04.666Z,13.39
2022-09-15T07:22:06.180Z,13.40
2022-09-15T07:24:15.803Z,13.39
2022-09-15T07:26:18.428Z,13.39
2022-09-15T07:28:20.110Z,13.39
2022-09-15T07:30:22.695Z,13.39
2022-09-15T07:32:24.532Z,13.40
2022-09-15T07:34:28.116Z,13.42
2022-09-15T07:36:29.956Z,13.44
2022-09-15T07:38:31.433Z,13.44
2022-09-15T07:40:34.526Z,13.46
2022-09-15T07:42:36.411Z,13.51
2022-09-15T07:44:43.919Z,13.55
2022-09-15T07:46:45.524Z,13.62
2022-09-15T07:48:48.118Z,13.75
2022-09-15T07:50:49.686Z,13.87
2022-09-15T07:52:51.309Z,13.96
2022-09-15T07:54:52.789Z,13.97
2022-09-15T07:56:54.447Z,13.95
2022-09-15T07:58:55.973Z,13.96
2022-09-15T08:01:01.290Z,13.96
2022-09-15T08:03:07.135Z,13.97
2022-09-15T08:05:08.698Z,13.99
2022-09-15T08:07:10.509Z,14.02
2022-09-15T08:09:14.883Z,14.05
2022-09-15T08:11:19.039Z,14.06
2022-09-15T08:13:20.880Z,14.07
2022-09-15T08:15:22.411Z,14.08
2022-09-15T08:17:24.019Z,14.14
2022-09-15T08:19:25.509Z,14.19
2022-09-15T08:21:28.255Z,14.22
2022-09-15T08:23:29.788Z,14.25
2022-09-15T08:25:31.278Z,14.31
2022-09-15T08:27:32.883Z,14.41
2022-09-15T08:29:35.006Z,14.51
2022-09-15T08:31:36.622Z,14.61
2022-09-15T08:33:40.823Z,14.71
2022-09-15T08:35:46.205Z,14.77
2022-09-15T08:37:47.723Z,14.81
2022-09-15T08:39:49.233Z,14.87
2022-09-15T08:41:51.662Z,14.94
2022-09-15T08:43:56.134Z,14.96
2022-09-15T08:46:01.059Z,14.96
2022-09-15T08:48:03.702Z,14.96
2022-09-15T08:50:08.033Z,14.96
2022-09-15T08:52:27.963Z,14.94
2022-09-15T08:54:29.551Z,15.00
2022-09-15T08:56:31.071Z,15.05
2022-09-15T08:58:34.365Z,15.05
2022-09-15T09:00:35.886Z,15.10
2022-09-15T09:02:37.426Z,15.19
2022-09-15T09:04:48.212Z,15.23
2022-09-15T09:06:59.797Z,15.25
2022-09-15T09:09:20.031Z,15.28
2022-09-15T09:11:25.494Z,15.32
2022-09-15T09:13:45.613Z,15.38
2022-09-15T09:16:06.127Z,15.50
2022-09-15T09:18:11.047Z,15.63
2022-09-15T09:20:13.048Z,15.68
2022-09-15T09:22:16.103Z,15.64
2022-09-15T09:24:18.715Z,15.69
2022-09-15T09:26:20.294Z,15.77
2022-09-15T09:29:00.341Z,15.86
2022-09-15T09:31:06.637Z,15.93
2022-09-15T09:33:14.140Z,15.96
2022-09-15T09:35:21.540Z,16.02
2022-09-15T09:37:23.911Z,16.06
2022-09-15T09:39:25.588Z,16.13
2022-09-15T09:41:35.753Z,16.14
2022-09-15T09:43:37.259Z,16.13
2022-09-15T09:45:39.061Z,16.17
2022-09-15T09:47:40.601Z,16.26
2022-09-15T09:49:48.497Z,16.43
2022-09-15T09:51:52.256Z,16.58
2022-09-15T09:53:53.977Z,16.65
2022-09-15T09:55:56.098Z,16.73
2022-09-15T09:58:11.607Z,16.80
2022-09-15T10:00:32.037Z,16.84
2022-09-15T10:02:34.113Z,16.77
2022-09-15T10:04:35.729Z,16.76
2022-09-15T10:06:37.309Z,16.79
2022-09-15T10:08:39.129Z,16.75
2022-09-15T10:10:40.715Z,16.71
2022-09-15T10:12:42.285Z,16.68
2022-09-15T10:14:45.478Z,16.64
2022-09-15T10:16:57.171Z,16.62
2022-09-15T10:18:58.779Z,16.54
2022-09-15T10:21:01.642Z,16.48
2022-09-15T10:23:09.945Z,16.47
2022-09-15T10:25:44.542Z,16.53
2022-09-15T10:28:10.837Z,16.64
2022-09-15T10:30:12.494Z,16.79
2022-09-15T10:32:24.852Z,16.89
2022-09-15T10:34:31.021Z,16.99
2022-09-15T10:36:33.652Z,17.09
2022-09-15T10:38:39.632Z,17.11
2022-09-15T10:40:45.224Z,17.08
2022-09-15T10:42:46.749Z,17.02
2022-09-15T10:44:48.219Z,17.01
2022-09-15T10:47:03.416Z,17.02
2022-09-15T10:49:27.742Z,17.08
2022-09-15T10:51:48.189Z,17.15
2022-09-15T10:54:16.728Z,17.15
2022-09-15T10:56:25.837Z,17.36
2022-09-15T10:58:39.853Z,17.53
2022-09-15T11:00:43.787Z,17.64
2022-09-15T11:02:46.476Z,17.72
2022-09-15T11:04:48.042Z,17.87
2022-09-15T11:07:08.151Z,17.97
2022-09-15T11:09:26.003Z,17.89
2022-09-15T11:11:42.839Z,17.82
2022-09-15T11:14:11.197Z,17.74
2022-09-15T11:16:26.177Z,17.72
2022-09-15T11:18:27.842Z,17.78
2022-09-15T11:20:50.730Z,17.90
2022-09-15T11:23:11.447Z,17.95
2022-09-15T11:25:14.028Z,17.92
2022-09-15T11:27:15.581Z,18.08
2022-09-15T11:29:40.069Z,18.58
2022-09-15T11:31:45.045Z,19.23
2022-09-15T11:33:48.589Z,19.69
2022-09-15T11:35:51.917Z,19.70
2022-09-15T11:37:54.070Z,19.61
2022-09-15T11:40:00.392Z,19.54
2022-09-15T11:42:05.577Z,19.64
2022-09-15T11:44:25.482Z,19.75
2022-09-15T11:46:31.950Z,19.54
2022-09-15T11:48:35.694Z,19.27
2022-09-15T11:50:38.172Z,19.48
2022-09-15T11:52:42.614Z,20.09
2022-09-15T11:54:46.202Z,20.55
2022-09-15T11:56:47.762Z,20.53
2022-09-15T11:59:05.729Z,20.26
2022-09-15T12:01:08.992Z,20.02
2022-09-15T12:03:14.029Z,19.70
2022-09-15T12:05:17.562Z,19.30
2022-09-15T12:07:20.804Z,19.06
2022-09-15T12:09:22.465Z,19.14
2022-09-15T12:11:25.025Z,19.42
2022-09-15T12:13:26.538Z,19.46
2022-09-15T12:15:28.140Z,19.25
2022-09-15T12:17:39.463Z,19.14
2022-09-15T12:19:43.598Z,19.18
2022-09-15T12:21:53.214Z,19.32
2022-09-15T12:23:56.601Z,19.29
2022-09-15T12:26:05.604Z,19.08
2022-09-15T12:28:22.370Z,19.31
2022-09-15T12:30:40.467Z,19.94
2022-09-15T12:32:42.342Z,20.44
2022-09-15T12:34:59.323Z,20.39
2022-09-15T12:37:07.598Z,19.99
2022-09-15T12:39:28.007Z,19.64
2022-09-15T12:41:29.657Z,19.18
2022-09-15T12:43:31.792Z,18.92
2022-09-15T12:45:34.342Z,18.93
2022-09-15T12:47:38.187Z,19.37
2022-09-15T12:49:42.447Z,19.96
2022-09-15T12:51:47.399Z,20.51
2022-09-15T12:54:10.587Z,20.96
2022-09-15T12:56:23.636Z,21.15
2022-09-15T12:58:27.522Z,20.97
2022-09-15T13:00:30.774Z,20.56
2022-09-15T13:02:42.402Z,20.12
2022-09-15T13:04:54.074Z,19.65
2022-09-15T13:07:13.981Z,19.30
2022-09-15T13:09:23.924Z,19.29
2022-09-15T13:11:34.810Z,19.71
2022-09-15T13:13:46.683Z,20.26
2022-09-15T13:15:49.221Z,20.81
2022-09-15T13:17:50.799Z,21.16
2022-09-15T13:19:57.859Z,21.52
2022-09-15T13:21:59.494Z,21.73
2022-09-15T13:24:01.038Z,21.62
2022-09-15T13:26:02.590Z,21.23
2022-09-15T13:28:04.160Z,20.79
2022-09-15T13:30:09.268Z,20.47
2022-09-15T13:32:43.676Z,20.24
2022-09-15T13:35:04.523Z,20.13
2022-09-15T13:39:53.425Z,20.11
2022-09-15T13:42:03.816Z,20.40
2022-09-15T13:44:11.231Z,20.83
2022-09-15T13:46:18.746Z,21.18
2022-09-15T13:48:32.319Z,21.17
2022-09-15T13:50:34.591Z,21.08
2022-09-15T13:52:52.303Z,20.97
2022-09-15T13:55:12.338Z,20.82
2022-09-15T13:57:14.358Z,20.66
2022-09-15T13:59:17.243Z,20.74
2022-09-15T14:01:21.167Z,20.98
2022-09-15T14:03:49.036Z,21.47
2022-09-15T14:05:50.671Z,21.68
2022-09-15T14:07:55.733Z,21.66
2022-09-15T14:09:58.270Z,21.69
2022-09-15T14:12:01.926Z,21.48
2022-09-15T14:14:03.505Z,21.10
2022-09-15T14:16:11.793Z,20.78
2022-09-15T14:18:20.836Z,20.42
2022-09-15T14:20:31.237Z,20.11
2022-09-15T14:22:33.542Z,19.83
2022-09-15T14:24:35.073Z,19.66
2022-09-15T14:26:36.687Z,19.43
2022-09-15T14:28:38.663Z,19.18
2022-09-15T14:30:40.200Z,19.02
2022-09-15T14:32:44.151Z,18.80
2022-09-15T14:34:45.674Z,18.91
2022-09-15T14:37:01.200Z,19.42
2022-09-15T14:39:23.510Z,20.13
2022-09-15T14:41:25.049Z,20.81
2022-09-15T14:43:28.212Z,21.41
2022-09-15T14:48:08.247Z,22.31
2022-09-15T14:50:20.159Z,22.80
2022-09-15T14:52:25.963Z,23.10
2022-09-15T14:54:36.942Z,23.25
2022-09-15T14:56:38.515Z,23.30
2022-09-15T14:58:39.991Z,23.33
2022-09-15T15:00:45.034Z,23.53
2022-09-15T15:02:58.245Z,23.70
2022-09-15T15:05:09.965Z,23.66
2022-09-15T15:07:27.878Z,23.59
2022-09-15T15:09:34.738Z,23.73
2022-09-15T15:11:37.067Z,23.90
2022-09-15T15:13:39.799Z,23.99
2022-09-15T15:15:41.367Z,23.96
2022-09-15T15:17:47.125Z,23.73
2022-09-15T15:19:48.876Z,23.33
2022-09-15T15:21:50.959Z,23.29
2022-09-15T15:23:52.464Z,23.41
2022-09-15T15:25:55.028Z,23.59
2022-09-15T15:27:57.434Z,23.79
2022-09-15T15:30:17.448Z,23.52
2022-09-15T15:32:22.774Z,22.87
2022-09-15T15:34:24.310Z,22.37
2022-09-15T15:36:26.715Z,22.03
2022-09-15T15:38:28.253Z,21.75
2022-09-15T15:40:30.067Z,21.42
2022-09-15T15:42:31.710Z,20.94
2022-09-15T15:44:33.202Z,20.47
2022-09-15T15:46:54.087Z,20.19
2022-09-15T15:48:56.176Z,20.04
2022-09-15T15:50:57.761Z,20.04
2022-09-15T15:53:00.100Z,20.08
2022-09-15T15:55:01.590Z,20.20
2022-09-15T15:57:06.409Z,20.74
2022-09-15T15:59:08.866Z,21.40
2022-09-15T16:01:10.828Z,21.61
2022-09-15T16:03:12.700Z,21.45
2022-09-15T16:05:14.260Z,21.23
2022-09-15T16:07:16.715Z,20.92
2022-09-15T16:09:18.484Z,20.54
2022-09-15T16:11:20.923Z,20.34
2022-09-15T16:13:22.649Z,20.26
2022-09-15T16:15:24.130Z,20.08
2022-09-15T16:17:25.659Z,19.94
2022-09-15T16:19:27.282Z,19.93
2022-09-15T16:21:32.234Z,19.85
2022-09-15T16:23:34.045Z,19.65
2022-09-15T16:25:36.912Z,19.47
2022-09-15T16:27:38.488Z,19.25
2022-09-15T16:29:40.034Z,19.02
2022-09-15T16:31:42.921Z,18.84
2022-09-15T16:33:44.586Z,18.75
2022-09-15T16:35:51.401Z,18.76
2022-09-15T16:37:52.993Z,18.72
2022-09-15T16:40:09.205Z,18.61
2022-09-15T16:42:10.777Z,18.55
2022-09-15T16:44:21.929Z,18.57
2022-09-15T16:46:23.501Z,18.55
2022-09-15T16:48:25.419Z,18.50
2022-09-15T16:50:27.506Z,18.53
2022-09-15T16:52:29.094Z,18.56
2022-09-15T16:54:30.653Z,18.48
2022-09-15T16:56:32.152Z,18.37
2022-09-15T16:58:33.965Z,18.28
2022-09-15T17:00:36.173Z,18.13
2022-09-15T17:02:37.888Z,18.00
2022-09-15T17:04:39.373Z,17.89
2022-09-15T17:06:46.531Z,17.87
2022-09-15T17:08:48.036Z,17.84
2022-09-15T17:10:49.642Z,17.81
2022-09-15T17:12:51.226Z,17.79
2022-09-15T17:14:52.707Z,17.76
2022-09-15T17:16:54.477Z,17.71
2022-09-15T17:18:56.068Z,17.69
2022-09-15T17:20:57.619Z,17.71
2022-09-15T17:22:59.288Z,17.72
2022-09-15T17:25:00.870Z,17.67
2022-09-15T17:27:02.359Z,17.63
2022-09-15T17:29:04.256Z,17.55
2022-09-15T17:31:06.922Z,17.45
2022-09-15T17:33:10.981Z,17.34
2022-09-15T17:35:16.396Z,17.27
2022-09-15T17:37:17.906Z,17.22
2022-09-15T17:39:19.899Z,17.13
2022-09-15T17:41:22.847Z,17.06
2022-09-15T17:43:25.606Z,17.04
2022-09-15T17:45:28.454Z,16.99
2022-09-15T17:47:31.798Z,16.93
2022-09-15T17:49:33.347Z,16.87
2022-09-15T17:51:35.187Z,16.84
2022-09-15T17:53:37.126Z,16.82
2022-09-15T17:55:38.653Z,16.78
2022-09-15T17:57:40.291Z,16.71
2022-09-15T17:59:41.789Z,16.65
2022-09-15T18:01:43.373Z,16.61
2022-09-15T18:03:45.187Z,16.57
2022-09-15T18:05:47.129Z,16.53
2022-09-15T18:07:48.722Z,16.51
2022-09-15T18:09:50.217Z,16.47
2022-09-15T18:11:51.723Z,16.44
2022-09-15T18:13:53.296Z,16.44
2022-09-15T18:15:55.085Z,16.41
2022-09-15T18:17:57.706Z,16.36
2022-09-15T18:19:59.526Z,16.32
2022-09-15T18:22:01.019Z,16.28
2022-09-15T18:24:02.716Z,16.24
2022-09-15T18:26:04.229Z,16.19
2022-09-15T18:28:05.756Z,16.12
2022-09-15T18:30:07.565Z,16.07
2022-09-15T18:32:09.081Z,16.04
2022-09-15T18:34:10.712Z,15.98
2022-09-15T18:36:12.198Z,15.94
2022-09-15T18:38:13.769Z,15.91
2022-09-15T18:40:16.887Z,15.88
2022-09-15T18:42:18.414Z,15.85
2022-09-15T18:44:19.948Z,15.82
2022-09-15T18:46:21.602Z,15.81
2022-09-15T18:48:23.163Z,15.79
2022-09-15T18:50:25.575Z,15.76
2022-09-15T18:52:27.595Z,15.73
2022-09-15T18:54:29.193Z,15.69
2022-09-15T18:56:30.750Z,15.65
2022-09-15T18:58:32.259Z,15.63
2022-09-15T19:00:33.786Z,15.60
2022-09-15T19:02:35.569Z,15.56
2022-09-15T19:04:40.624Z,15.52
2022-09-15T19:06:42.321Z,15.48
2022-09-15T19:08:44.000Z,15.44
2022-09-15T19:10:45.482Z,15.41
2022-09-15T19:12:47.013Z,15.37
2022-09-15T19:14:48.566Z,15.34
2022-09-15T19:16:57.525Z,15.31
2022-09-15T19:18:59.830Z,15.27
2022-09-15T19:21:05.554Z,15.25
2022-09-15T19:23:07.045Z,15.21
2022-09-15T19:25:08.723Z,15.19
2022-09-15T19:27:10.331Z,15.13
2022-09-15T19:29:11.883Z,15.08
2022-09-15T19:31:13.724Z,15.04
2022-09-15T19:33:15.288Z,15.00
2022-09-15T19:35:16.876Z,14.95
2022-09-15T19:37:19.806Z,14.91
2022-09-15T19:39:21.373Z,14.87
2022-09-15T19:41:22.884Z,14.81
2022-09-15T19:43:24.390Z,14.74
2022-09-15T19:45:25.927Z,14.72
2022-09-15T19:47:27.426Z,14.67
2022-09-15T19:49:29.077Z,14.64
2022-09-15T19:51:31.480Z,14.58
2022-09-15T19:53:33.292Z,14.55
2022-09-15T19:55:34.803Z,14.50
2022-09-15T19:57:39.871Z,14.45
2022-09-15T19:59:41.383Z,14.39
2022-09-15T20:01:43.239Z,14.34
2022-09-15T20:03:44.983Z,14.30
2022-09-15T20:05:50.315Z,14.25
2022-09-15T20:07:51.861Z,14.21
2022-09-15T20:09:53.433Z,14.19
2022-09-15T20:11:55.082Z,14.15
2022-09-15T20:13:56.894Z,14.12
2022-09-15T20:15:59.522Z,14.08
2022-09-15T20:18:01.039Z,14.05
2022-09-15T20:20:02.773Z,14.02
2022-09-15T20:22:04.586Z,14.00
2022-09-15T20:24:06.336Z,13.97
2022-09-15T20:26:09.568Z,13.95
2022-09-15T20:28:11.082Z,13.92
2022-09-15T20:30:14.224Z,13.89
2022-09-15T20:32:15.784Z,13.85
2022-09-15T20:34:18.648Z,13.82
2022-09-15T20:36:23.199Z,13.80
2022-09-15T20:38:24.738Z,13.78
2022-09-15T20:40:26.518Z,13.76
2022-09-15T20:42:28.058Z,13.71
2022-09-15T20:44:29.541Z,13.65
2022-09-15T20:46:31.465Z,13.62
2022-09-15T20:48:33.392Z,13.59
2022-09-15T20:50:34.896Z,13.54
2022-09-15T20:52:38.573Z,13.53
2022-09-15T20:54:40.606Z,13.50
2022-09-15T20:56:42.087Z,13.46
2022-09-15T20:58:43.815Z,13.43
2022-09-15T21:00:47.455Z,13.40
2022-09-15T21:02:52.240Z,13.37
2022-09-15T21:04:53.774Z,13.36
2022-09-15T21:06:55.264Z,13.34
2022-09-15T21:08:57.761Z,13.31
2022-09-15T21:10:59.475Z,13.29
2022-09-15T21:13:01.276Z,13.28
2022-09-15T21:15:03.424Z,13.27
2022-09-15T21:17:04.941Z,13.24
2022-09-15T21:19:09.042Z,13.19
2022-09-15T21:21:10.515Z,13.14
2022-09-15T21:23:12.483Z,13.07
2022-09-15T21:25:14.010Z,13.05
2022-09-15T21:27:27.825Z,12.99
2022-09-15T21:29:29.425Z,12.94
2022-09-15T21:31:31.898Z,12.90
2022-09-15T21:33:33.781Z,12.85
2022-09-15T21:35:35.294Z,12.80
2022-09-15T21:37:36.782Z,12.75
2022-09-15T21:39:38.321Z,12.69
2022-09-15T21:41:39.846Z,12.64
2022-09-15T21:43:45.512Z,12.61
2022-09-15T21:45:52.253Z,12.60
2022-09-15T21:47:53.879Z,12.57
2022-09-15T21:49:56.462Z,12.55
2022-09-15T21:52:03.848Z,12.52
2022-09-15T21:54:05.435Z,12.47
2022-09-15T21:56:08.561Z,12.43
2022-09-15T21:58:10.076Z,12.39
2022-09-15T22:00:12.282Z,12.33
2022-09-15T22:02:13.870Z,12.29
2022-09-15T22:04:15.474Z,12.27
2022-09-15T22:06:17.286Z,12.25
2022-09-15T22:08:19.336Z,12.22
2022-09-15T22:10:20.846Z,12.18
2022-09-15T22:12:22.385Z,12.16
2022-09-15T22:14:23.926Z,12.13
2022-09-15T22:16:25.631Z,12.09
2022-09-15T22:18:27.253Z,12.04
2022-09-15T22:20:29.247Z,11.99
2022-09-15T22:22:30.836Z,11.95
2022-09-15T22:24:32.531Z,11.92
2022-09-15T22:26:35.104Z,11.89
2022-09-15T22:28:36.683Z,11.87
2022-09-15T22:30:38.224Z,11.82
2022-09-15T22:32:39.750Z,11.78
2022-09-15T22:34:41.240Z,11.73
2022-09-15T22:36:42.774Z,11.67
2022-09-15T22:38:44.498Z,11.62
2022-09-15T22:40:46.108Z,11.59
2022-09-15T22:42:48.364Z,11.57
2022-09-15T22:44:49.980Z,11.54
2022-09-15T22:46:52.710Z,11.51
2022-09-15T22:48:54.276Z,11.47
2022-09-15T22:50:55.866Z,11.42
2022-09-15T22:52:57.400Z,11.39
2022-09-15T22:54:59.068Z,11.34
2022-09-15T22:57:00.619Z,11.28
2022-09-15T22:59:02.872Z,11.24
2022-09-15T23:01:04.516Z,11.19
2022-09-15T23:03:06.556Z,11.15
2022-09-15T23:05:09.591Z,11.13
2022-09-15T23:07:11.214Z,11.09
2022-09-15T23:09:12.863Z,11.04
2022-09-15T23:11:14.471Z,11.00
2022-09-15T23:13:17.248Z,10.93
2022-09-15T23:15:19.098Z,10.88
2022-09-15T23:17:20.634Z,10.85
2022-09-15T23:19:22.177Z,10.80
2022-09-15T23:21:23.931Z,10.76
2022-09-15T23:23:25.987Z,10.73
2022-09-15T23:25:27.565Z,10.70
2022-09-15T23:27:29.084Z,10.67
2022-09-15T23:29:30.592Z,10.63
2022-09-15T23:31:32.182Z,10.61
2022-09-15T23:33:33.878Z,10.59
2022-09-15T23:35:35.817Z,10.55
2022-09-15T23:37:37.397Z,10.51
2022-09-15T23:39:38.983Z,10.47
2022-09-15T23:41:43.588Z,10.45
2022-09-15T23:43:45.358Z,10.50
2022-09-15T23:45:47.242Z,10.55
2022-09-15T23:47:53.958Z,10.67
2022-09-15T23:49:55.554Z,10.77
2022-09-15T23:51:57.220Z,10.74
2022-09-15T23:53:58.935Z,10.71
2022-09-15T23:56:00.565Z,10.76
2022-09-15T23:58:02.570Z,10.75
